Time;durP1;ratioP1;P1;durP2;ratioP2;P2;SDS_P1;SDS_P2;PMS_P1;PMS_P2;Temp;Humidity;BMP_temperature;BMP_pressure;BME280_temperature;BME280_humidity;BME280_pressure;Samples;Min_cycle;Max_cycle;Signal;HPM_P1;HPM_P2
2023/10/24 00:00:35;;;;;;;16.65;13.55;;;12.10;98.60;;;;;;5014212;28;20108;-85
2023/10/24 00:03:00;;;;;;;15.48;12.85;;;12.00;98.60;;;;;;5014193;28;20033;-86
2023/10/24 00:05:28;;;;;;;16.67;14.23;;;12.00;98.50;;;;;;5013019;28;20041;-85
2023/10/24 00:07:54;;;;;;;17.65;14.40;;;12.00;98.50;;;;;;5012105;28;20038;-82
2023/10/24 00:10:19;;;;;;;15.00;13.20;;;12.00;98.50;;;;;;5019380;28;20460;-85
2023/10/24 00:12:45;;;;;;;16.23;13.93;;;12.00;98.50;;;;;;5017831;28;20125;-83
2023/10/24 00:15:11;;;;;;;15.20;12.75;;;12.00;98.50;;;;;;5021367;28;20225;-83
2023/10/24 00:17:36;;;;;;;17.35;13.75;;;12.00;98.50;;;;;;5019697;28;20061;-85
2023/10/24 00:20:02;;;;;;;15.32;13.18;;;12.00;98.50;;;;;;5019245;28;20049;-85
2023/10/24 00:22:28;;;;;;;15.48;12.70;;;12.00;98.40;;;;;;5019183;28;20657;-85
2023/10/24 00:24:53;;;;;;;16.75;12.85;;;12.10;98.40;;;;;;5013173;28;20609;-86
2023/10/24 00:27:19;;;;;;;14.57;12.75;;;12.00;98.30;;;;;;5015958;28;20042;-82
2023/10/24 00:29:45;;;;;;;14.73;13.10;;;12.00;98.30;;;;;;5016835;28;20127;-82
2023/10/24 00:32:11;;;;;;;15.23;12.88;;;12.00;98.30;;;;;;5030681;28;20041;-84
2023/10/24 00:34:37;;;;;;;14.90;12.75;;;12.00;98.10;;;;;;5033714;28;20022;-85
2023/10/24 00:37:03;;;;;;;13.45;11.65;;;11.90;98.00;;;;;;5009760;28;20133;-86
2023/10/24 00:39:29;;;;;;;14.20;12.30;;;11.90;98.10;;;;;;5018873;28;20100;-84
2023/10/24 00:41:55;;;;;;;16.08;12.95;;;11.90;98.10;;;;;;5018388;28;20052;-84
2023/10/24 00:44:20;;;;;;;14.27;12.38;;;12.00;98.20;;;;;;5020833;28;20115;-85
2023/10/24 00:46:47;;;;;;;13.98;12.25;;;11.90;98.10;;;;;;5013655;28;20060;-83
2023/10/24 00:49:12;;;;;;;15.02;12.27;;;12.00;98.10;;;;;;5022348;28;20029;-83
2023/10/24 00:51:40;;;;;;;13.45;11.20;;;12.00;98.00;;;;;;5018151;28;20048;-85
2023/10/24 00:54:06;;;;;;;13.50;11.70;;;12.00;98.00;;;;;;5012581;28;20184;-82
2023/10/24 00:56:32;;;;;;;14.60;12.57;;;11.90;97.90;;;;;;5015729;28;20033;-84
2023/10/24 00:58:59;;;;;;;13.93;12.20;;;12.00;97.90;;;;;;5010282;28;20117;-81
2023/10/24 01:01:24;;;;;;;14.00;11.57;;;11.90;97.90;;;;;;5019932;28;20065;-85
2023/10/24 01:03:50;;;;;;;14.25;11.43;;;11.90;97.90;;;;;;5014300;28;20470;-84
2023/10/24 01:06:16;;;;;;;13.88;11.30;;;11.90;97.90;;;;;;5011085;28;20053;-83
2023/10/24 01:08:43;;;;;;;15.35;13.02;;;11.90;97.80;;;;;;5013101;28;20359;-84
2023/10/24 01:11:09;;;;;;;14.45;12.73;;;11.90;97.80;;;;;;5012900;28;20096;-82
2023/10/24 01:13:36;;;;;;;15.05;12.82;;;11.90;97.80;;;;;;5015369;28;20033;-81
2023/10/24 01:16:01;;;;;;;15.18;12.88;;;11.90;97.70;;;;;;5016962;28;20111;-83
2023/10/24 01:18:27;;;;;;;16.10;13.43;;;11.90;97.80;;;;;;5014060;28;20702;-85
2023/10/24 01:20:52;;;;;;;14.90;12.85;;;11.90;97.80;;;;;;5013218;28;20038;-85
2023/10/24 01:23:18;;;;;;;15.38;12.98;;;11.90;97.80;;;;;;5012513;28;20026;-84
2023/10/24 01:25:45;;;;;;;15.02;12.68;;;11.90;97.70;;;;;;5014097;28;20060;-81
2023/10/24 01:28:11;;;;;;;14.45;12.15;;;11.90;97.70;;;;;;5019056;28;20022;-82
2023/10/24 01:30:39;;;;;;;15.88;12.90;;;11.90;97.70;;;;;;5016021;28;20140;-82
2023/10/24 01:33:04;;;;;;;16.55;13.70;;;11.90;97.80;;;;;;5017152;28;20103;-83
2023/10/24 01:35:30;;;;;;;17.23;13.88;;;11.90;97.80;;;;;;5015412;28;20352;-85
2023/10/24 01:37:56;;;;;;;16.40;13.45;;;11.90;97.70;;;;;;5017381;28;20048;-82
2023/10/24 01:40:22;;;;;;;15.40;13.23;;;11.90;97.80;;;;;;5017238;28;20068;-84
2023/10/24 01:42:47;;;;;;;15.65;13.50;;;11.80;97.80;;;;;;5016090;28;20042;-81
2023/10/24 01:45:15;;;;;;;18.23;14.95;;;11.90;97.70;;;;;;5018204;28;20030;-85
2023/10/24 01:47:41;;;;;;;16.98;14.13;;;11.80;97.70;;;;;;5018123;28;20111;-85
2023/10/24 01:50:07;;;;;;;17.02;13.93;;;11.80;97.70;;;;;;5020096;28;20037;-84
2023/10/24 01:52:33;;;;;;;16.80;13.68;;;11.90;97.70;;;;;;5017849;28;20422;-81
2023/10/24 01:54:58;;;;;;;17.63;14.35;;;11.90;97.60;;;;;;5015806;28;20044;-85
2023/10/24 01:57:24;;;;;;;17.33;14.45;;;11.80;97.60;;;;;;5015697;28;20076;-84
2023/10/24 01:59:49;;;;;;;18.30;14.30;;;11.80;97.50;;;;;;5017764;28;20077;-82
2023/10/24 02:02:15;;;;;;;16.10;13.07;;;11.80;97.60;;;;;;5013421;28;20145;-86
2023/10/24 02:04:41;;;;;;;18.05;13.98;;;11.70;97.50;;;;;;5017444;28;20042;-86
2023/10/24 02:07:07;;;;;;;17.17;14.32;;;11.70;97.50;;;;;;5018022;28;20636;-85
2023/10/24 02:09:33;;;;;;;16.00;12.98;;;11.70;97.50;;;;;;5017201;28;20033;-85
2023/10/24 02:12:02;;;;;;;16.25;13.77;;;11.70;97.50;;;;;;5013771;28;20049;-82
2023/10/24 02:14:29;;;;;;;16.42;13.30;;;11.70;97.50;;;;;;5020314;28;20049;-84
2023/10/24 02:16:55;;;;;;;15.45;13.18;;;11.70;97.40;;;;;;5019789;28;20121;-87
2023/10/24 02:19:21;;;;;;;17.02;13.63;;;11.70;97.30;;;;;;5021673;28;20537;-84
2023/10/24 02:21:46;;;;;;;16.60;13.23;;;11.70;97.30;;;;;;5016337;28;20034;-85
2023/10/24 02:24:12;;;;;;;16.80;13.82;;;11.70;97.30;;;;;;5030045;28;20013;-84
2023/10/24 02:26:38;;;;;;;19.42;13.77;;;11.60;97.20;;;;;;5015447;28;20071;-80
2023/10/24 02:29:03;;;;;;;18.50;13.23;;;11.60;97.20;;;;;;5017157;28;20018;-81
2023/10/24 02:31:29;;;;;;;16.05;13.18;;;11.60;97.20;;;;;;5010645;28;20092;-83
2023/10/24 02:33:55;;;;;;;16.20;13.02;;;11.60;97.20;;;;;;5035263;28;20029;-81
2023/10/24 02:36:21;;;;;;;15.60;12.15;;;11.60;97.20;;;;;;5027048;28;20364;-83
2023/10/24 02:38:46;;;;;;;16.02;12.30;;;11.60;97.10;;;;;;5007509;28;20103;-82
2023/10/24 02:41:13;;;;;;;15.43;12.80;;;11.60;97.10;;;;;;5013489;28;20089;-86
2023/10/24 02:43:39;;;;;;;15.27;12.43;;;11.60;97.10;;;;;;5013045;28;20569;-84
2023/10/24 02:46:05;;;;;;;16.02;11.90;;;11.60;97.20;;;;;;5017606;28;20045;-82
2023/10/24 02:48:31;;;;;;;16.08;12.57;;;11.60;97.20;;;;;;5015295;28;20707;-86
2023/10/24 02:50:57;;;;;;;15.23;12.02;;;11.60;97.20;;;;;;5014056;28;20056;-85
2023/10/24 02:53:23;;;;;;;16.20;12.50;;;11.60;97.10;;;;;;5014866;28;20065;-80
2023/10/24 02:55:49;;;;;;;15.77;11.48;;;11.60;97.20;;;;;;5031833;28;20041;-81
2023/10/24 02:58:16;;;;;;;16.65;11.93;;;11.60;97.20;;;;;;5027121;28;20034;-81
2023/10/24 03:00:42;;;;;;;15.35;11.35;;;11.50;97.20;;;;;;5016327;28;20258;-85
2023/10/24 03:03:08;;;;;;;15.88;12.27;;;11.60;97.30;;;;;;5014598;28;20049;-85
2023/10/24 03:05:34;;;;;;;15.23;11.57;;;11.50;97.10;;;;;;5019631;28;20394;-83
2023/10/24 03:07:59;;;;;;;14.80;11.05;;;11.50;97.20;;;;;;5014320;28;20045;-86
2023/10/24 03:10:25;;;;;;;16.73;12.88;;;11.50;97.20;;;;;;5013133;28;20466;-81
2023/10/24 03:12:55;;;;;;;17.67;12.32;;;11.40;97.20;;;;;;5016908;28;20763;-83
2023/10/24 03:15:21;;;;;;;17.95;12.63;;;11.50;97.40;;;;;;5017820;28;20037;-83
2023/10/24 03:17:46;;;;;;;17.67;12.45;;;11.50;97.50;;;;;;5010765;28;20029;-82
2023/10/24 03:20:12;;;;;;;17.02;12.32;;;11.50;97.50;;;;;;5010611;28;20060;-85
2023/10/24 03:22:38;;;;;;;17.02;12.60;;;11.50;97.50;;;;;;5014349;28;20034;-85
2023/10/24 03:25:05;;;;;;;16.58;12.68;;;11.50;97.50;;;;;;5012894;28;20117;-81
2023/10/24 03:27:30;;;;;;;17.02;13.90;;;11.60;97.50;;;;;;5012895;28;20715;-85
2023/10/24 03:29:56;;;;;;;16.85;13.18;;;11.50;97.50;;;;;;5017171;28;20064;-83
2023/10/24 03:32:22;;;;;;;16.27;12.43;;;11.50;97.50;;;;;;5016383;28;20740;-84
2023/10/24 03:34:47;;;;;;;19.25;13.43;;;11.50;97.50;;;;;;5014042;28;20650;-85
2023/10/24 03:37:14;;;;;;;17.67;13.88;;;11.50;97.50;;;;;;5017153;28;20033;-84
2023/10/24 03:39:39;;;;;;;17.45;12.90;;;11.50;97.60;;;;;;5015922;28;20022;-84
2023/10/24 03:42:06;;;;;;;16.30;11.82;;;11.60;97.50;;;;;;5016438;28;20040;-84
2023/10/24 03:44:32;;;;;;;16.75;11.88;;;11.60;97.40;;;;;;5019193;28;20434;-80
2023/10/24 03:46:57;;;;;;;16.42;12.77;;;11.60;97.40;;;;;;5018353;28;20025;-82
2023/10/24 03:49:23;;;;;;;17.05;12.68;;;11.60;97.50;;;;;;5018574;28;20091;-83
2023/10/24 03:51:48;;;;;;;16.55;12.48;;;11.60;97.50;;;;;;5021011;28;20077;-83
2023/10/24 03:54:14;;;;;;;16.50;12.85;;;11.60;97.50;;;;;;5020156;28;20491;-85
2023/10/24 03:56:43;;;;;;;16.58;13.05;;;11.60;97.50;;;;;;5017574;28;20046;-85
2023/10/24 03:59:09;;;;;;;15.77;13.50;;;11.50;97.50;;;;;;5014765;28;20599;-85
2023/10/24 04:01:34;;;;;;;16.52;13.45;;;11.60;97.50;;;;;;5018849;28;20025;-84
2023/10/24 04:04:00;;;;;;;16.08;12.77;;;11.60;97.50;;;;;;5018782;28;20100;-82
2023/10/24 04:06:27;;;;;;;17.38;12.98;;;11.50;97.50;;;;;;5014111;28;20042;-81
2023/10/24 04:08:53;;;;;;;16.08;13.07;;;11.50;97.50;;;;;;5020411;28;20022;-84
2023/10/24 04:11:18;;;;;;;16.10;13.65;;;11.50;97.50;;;;;;5015076;28;20045;-82
2023/10/24 04:13:45;;;;;;;17.83;14.40;;;11.40;97.50;;;;;;5019380;28;20032;-85
2023/10/24 04:16:12;;;;;;;18.55;13.75;;;11.30;97.60;;;;;;5021738;28;20470;-83
2023/10/24 04:18:39;;;;;;;15.77;13.50;;;11.30;97.70;;;;;;5018971;28;20566;-82
2023/10/24 04:21:05;;;;;;;17.58;14.45;;;11.20;97.70;;;;;;5017561;28;20029;-83
2023/10/24 04:23:31;;;;;;;18.42;15.05;;;11.20;97.80;;;;;;5016844;28;20460;-86
2023/10/24 04:25:56;;;;;;;17.50;14.48;;;11.10;97.80;;;;;;5014013;28;20058;-81
2023/10/24 04:28:22;;;;;;;19.58;14.15;;;11.10;97.90;;;;;;5016743;28;20662;-84
2023/10/24 04:30:48;;;;;;;16.92;13.80;;;11.10;98.00;;;;;;5016795;28;20057;-81
2023/10/24 04:33:14;;;;;;;16.52;12.80;;;11.10;98.00;;;;;;5014851;28;20122;-84
2023/10/24 04:35:47;;;;;;;18.60;14.52;;;11.00;98.10;;;;;;5014551;28;20025;-85
2023/10/24 04:38:16;;;;;;;16.25;13.77;;;11.00;98.10;;;;;;5009279;28;20077;-83
2023/10/24 04:40:42;;;;;;;17.27;13.93;;;11.00;98.20;;;;;;5006324;28;20949;-84
2023/10/24 04:43:08;;;;;;;17.70;14.05;;;11.00;98.20;;;;;;5006002;28;20034;-81
2023/10/24 04:45:35;;;;;;;17.50;15.32;;;10.90;98.10;;;;;;5005577;28;20038;-82
2023/10/24 04:48:02;;;;;;;17.73;14.30;;;10.80;98.10;;;;;;5010203;28;20037;-82
2023/10/24 04:50:27;;;;;;;16.75;13.20;;;10.80;98.20;;;;;;5011807;28;20030;-82
2023/10/24 04:52:54;;;;;;;17.15;14.23;;;10.70;98.20;;;;;;5012014;28;20653;-81
2023/10/24 04:55:23;;;;;;;17.65;14.45;;;10.70;98.20;;;;;;5015203;28;20156;-82
2023/10/24 04:57:49;;;;;;;20.00;14.65;;;10.70;98.20;;;;;;5015138;28;20048;-83
2023/10/24 05:00:15;;;;;;;18.17;14.70;;;10.70;98.30;;;;;;5011879;28;21533;-81
2023/10/24 05:02:44;;;;;;;17.23;14.20;;;10.60;98.30;;;;;;5017488;28;20148;-83
2023/10/24 05:05:10;;;;;;;19.45;15.23;;;10.60;98.40;;;;;;5017516;28;20121;-84
2023/10/24 05:07:36;;;;;;;18.58;14.88;;;10.60;98.50;;;;;;5019260;28;20053;-81
2023/10/24 05:10:02;;;;;;;18.10;15.65;;;10.60;98.50;;;;;;5016905;28;20034;-81
2023/10/24 05:12:27;;;;;;;19.27;15.45;;;10.60;98.50;;;;;;5017458;28;20044;-83
2023/10/24 05:14:53;;;;;;;19.85;15.10;;;10.50;98.50;;;;;;5014410;28;20391;-83
2023/10/24 05:17:19;;;;;;;20.38;15.38;;;10.50;98.60;;;;;;5019171;28;20095;-84
2023/10/24 05:19:45;;;;;;;19.80;15.43;;;10.50;98.60;;;;;;5019166;28;20069;-82
2023/10/24 05:22:11;;;;;;;19.52;15.95;;;10.50;98.70;;;;;;5014661;28;20044;-83
2023/10/24 05:24:37;;;;;;;19.48;15.85;;;10.50;98.70;;;;;;5013064;28;20021;-82
2023/10/24 05:27:04;;;;;;;18.83;15.68;;;10.50;98.70;;;;;;5016814;28;20045;-82
2023/10/24 05:29:32;;;;;;;22.08;16.40;;;10.50;98.70;;;;;;5020789;28;20514;-83
2023/10/24 05:31:57;;;;;;;21.95;17.48;;;10.50;98.70;;;;;;5014657;28;20029;-85
2023/10/24 05:34:26;;;;;;;23.55;17.30;;;10.50;98.60;;;;;;5015129;28;20422;-85
2023/10/24 05:36:52;;;;;;;22.08;17.52;;;10.50;98.50;;;;;;5021755;28;20042;-84
2023/10/24 05:39:19;;;;;;;21.65;16.70;;;10.50;98.50;;;;;;5040648;28;20106;-83
2023/10/24 05:41:45;;;;;;;23.60;18.13;;;10.40;98.50;;;;;;5027611;28;20057;-83
2023/10/24 05:44:10;;;;;;;22.15;17.25;;;10.40;98.60;;;;;;5019727;28;20056;-82
2023/10/24 05:46:36;;;;;;;24.92;19.55;;;10.40;98.60;;;;;;5035756;28;20433;-84
2023/10/24 05:49:02;;;;;;;23.77;18.52;;;10.40;98.60;;;;;;5022599;28;20026;-83
2023/10/24 05:51:29;;;;;;;26.38;17.80;;;10.40;98.70;;;;;;5018342;28;20045;-84
2023/10/24 05:53:55;;;;;;;26.25;19.52;;;10.40;98.70;;;;;;5015045;28;20155;-83
2023/10/24 05:56:21;;;;;;;28.73;19.50;;;10.40;98.70;;;;;;5017614;28;20165;-84
2023/10/24 05:58:47;;;;;;;25.42;18.65;;;10.50;98.80;;;;;;5023661;28;20064;-80
2023/10/24 06:01:13;;;;;;;25.23;18.55;;;10.50;98.90;;;;;;5037698;28;20041;-82
2023/10/24 06:03:38;;;;;;;26.92;19.52;;;10.50;98.90;;;;;;5032970;28;20017;-83
2023/10/24 06:06:04;;;;;;;26.33;18.85;;;10.50;98.90;;;;;;5019817;28;20386;-82
2023/10/24 06:08:30;;;;;;;27.27;18.50;;;10.50;98.90;;;;;;5019282;28;20597;-82
2023/10/24 06:10:57;;;;;;;24.20;19.45;;;10.60;98.90;;;;;;5018927;28;20259;-84
2023/10/24 06:13:22;;;;;;;27.17;19.70;;;10.60;98.90;;;;;;5018285;28;20053;-83
2023/10/24 06:15:48;;;;;;;25.02;19.13;;;10.60;98.90;;;;;;5019919;28;20037;-83
2023/10/24 06:18:14;;;;;;;24.00;18.27;;;10.60;98.80;;;;;;5021433;28;20052;-76
2023/10/24 06:20:40;;;;;;;27.60;20.13;;;10.60;98.90;;;;;;5021056;28;20037;-80
2023/10/24 06:23:07;;;;;;;25.27;19.92;;;10.60;98.90;;;;;;5021688;28;20036;-79
2023/10/24 06:25:37;;;;;;;25.80;20.45;;;10.70;98.80;;;;;;5021640;28;20050;-81
2023/10/24 06:28:03;;;;;;;26.02;21.83;;;10.60;98.80;;;;;;5019819;28;20037;-81
2023/10/24 06:30:28;;;;;;;23.13;19.60;;;10.70;98.80;;;;;;5020317;28;20581;-80
2023/10/24 06:32:54;;;;;;;24.58;19.65;;;10.70;98.90;;;;;;5017862;28;20046;-79
2023/10/24 06:35:20;;;;;;;24.50;20.23;;;10.70;98.80;;;;;;5014150;28;20768;-82
2023/10/24 06:37:45;;;;;;;24.42;18.73;;;10.80;98.80;;;;;;5020973;28;20041;-79
2023/10/24 06:40:12;;;;;;;27.20;21.42;;;10.70;98.80;;;;;;5017514;28;20045;-80
2023/10/24 06:42:38;;;;;;;28.60;21.00;;;10.80;98.80;;;;;;5017131;28;20155;-77
2023/10/24 06:45:05;;;;;;;26.80;20.85;;;10.90;98.80;;;;;;5017823;28;20057;-78
2023/10/24 06:47:30;;;;;;;25.13;19.40;;;10.90;98.80;;;;;;5015317;28;20034;-77
2023/10/24 06:49:56;;;;;;;25.73;20.88;;;10.90;98.80;;;;;;5017438;28;20389;-74
2023/10/24 06:52:22;;;;;;;23.67;19.55;;;10.90;98.80;;;;;;5017767;28;20039;-74
2023/10/24 06:54:47;;;;;;;26.85;20.73;;;11.00;98.90;;;;;;5017014;28;20056;-74
2023/10/24 06:57:13;;;;;;;28.02;20.77;;;11.00;98.80;;;;;;5013479;28;20425;-74
2023/10/24 06:59:39;;;;;;;27.67;21.30;;;11.10;98.90;;;;;;5021433;28;20025;-75
2023/10/24 07:02:04;;;;;;;27.85;21.88;;;11.10;98.80;;;;;;5014491;28;20421;-75
2023/10/24 07:04:30;;;;;;;27.13;21.33;;;11.10;98.80;;;;;;5021010;28;20025;-74
2023/10/24 07:06:56;;;;;;;27.38;21.38;;;11.20;98.70;;;;;;5018382;28;20045;-75
2023/10/24 07:09:21;;;;;;;25.20;19.50;;;11.20;98.70;;;;;;5017477;28;20022;-75
2023/10/24 07:11:47;;;;;;;27.52;23.08;;;11.20;98.70;;;;;;5018664;28;20050;-74
2023/10/24 07:14:13;;;;;;;28.83;22.75;;;11.30;98.70;;;;;;5017792;28;20029;-75
2023/10/24 07:16:38;;;;;;;29.40;22.98;;;11.30;98.80;;;;;;5016950;28;20072;-75
2023/10/24 07:19:04;;;;;;;29.58;21.85;;;11.30;98.70;;;;;;5016972;28;20029;-74
2023/10/24 07:21:30;;;;;;;26.15;21.05;;;11.30;98.80;;;;;;5014340;28;20096;-75
2023/10/24 07:23:56;;;;;;;26.65;21.10;;;11.40;98.80;;;;;;5021495;28;20029;-73
2023/10/24 07:26:22;;;;;;;26.30;21.77;;;11.40;98.70;;;;;;5013781;28;20149;-74
2023/10/24 07:28:49;;;;;;;25.10;21.85;;;11.40;98.80;;;;;;5018534;28;20037;-74
2023/10/24 07:31:14;;;;;;;24.17;21.48;;;11.40;98.80;;;;;;5014117;28;20099;-74
2023/10/24 07:33:41;;;;;;;26.95;21.48;;;11.50;98.80;;;;;;5017106;28;20026;-75
2023/10/24 07:36:07;;;;;;;27.23;22.05;;;11.50;98.80;;;;;;5014025;28;20100;-73
2023/10/24 07:38:33;;;;;;;25.58;20.45;;;11.50;98.90;;;;;;5018703;28;20030;-73
2023/10/24 07:41:00;;;;;;;25.02;20.92;;;11.50;98.90;;;;;;5017150;28;20044;-73
2023/10/24 07:43:26;;;;;;;23.85;21.05;;;11.60;98.90;;;;;;5015834;28;20030;-74
2023/10/24 07:45:55;;;;;;;25.42;20.95;;;11.60;98.80;;;;;;5019353;28;20041;-73
2023/10/24 07:48:23;;;;;;;26.05;22.17;;;11.50;98.90;;;;;;5020721;28;20292;-73
2023/10/24 07:50:53;;;;;;;23.48;21.00;;;11.60;98.90;;;;;;5015019;28;20052;-73
2023/10/24 07:53:19;;;;;;;30.17;24.25;;;11.60;99.00;;;;;;5018640;28;20042;-73
2023/10/24 07:55:45;;;;;;;26.60;21.45;;;11.60;98.90;;;;;;5016264;28;20163;-73
2023/10/24 07:58:11;;;;;;;28.42;22.02;;;11.60;98.90;;;;;;5019752;28;20033;-73
2023/10/24 08:00:36;;;;;;;29.02;23.00;;;11.60;98.90;;;;;;5013129;28;20045;-74
2023/10/24 08:03:02;;;;;;;24.52;21.45;;;11.60;99.00;;;;;;5013100;28;20038;-74
2023/10/24 08:05:27;;;;;;;26.42;22.67;;;11.60;99.00;;;;;;5013576;28;20181;-74
2023/10/24 08:07:53;;;;;;;26.38;21.40;;;11.60;99.10;;;;;;5013064;28;20077;-74
2023/10/24 08:10:19;;;;;;;30.02;22.30;;;11.70;99.10;;;;;;5010753;28;20456;-75
2023/10/24 08:12:44;;;;;;;23.33;20.70;;;11.70;99.10;;;;;;5010346;28;20088;-72
2023/10/24 08:15:10;;;;;;;27.95;22.23;;;11.70;99.10;;;;;;5008387;28;20132;-75
2023/10/24 08:17:36;;;;;;;27.55;20.63;;;11.70;99.10;;;;;;5009502;28;20042;-75
2023/10/24 08:20:04;;;;;;;26.23;21.95;;;11.70;99.10;;;;;;5011104;28;20037;-75
2023/10/24 08:22:30;;;;;;;31.52;25.98;;;11.70;99.20;;;;;;5006925;28;20026;-74
2023/10/24 08:24:55;;;;;;;24.48;21.70;;;11.70;99.20;;;;;;5009528;28;20057;-74
2023/10/24 08:27:21;;;;;;;22.20;18.08;;;11.70;99.30;;;;;;5008697;28;20065;-73
2023/10/24 08:29:47;;;;;;;23.50;19.38;;;11.80;99.30;;;;;;5010768;28;20510;-76
2023/10/24 08:32:12;;;;;;;23.45;18.42;;;11.70;99.20;;;;;;5011135;28;20040;-73
2023/10/24 08:34:38;;;;;;;20.17;17.98;;;11.80;99.20;;;;;;5013107;28;20037;-73
2023/10/24 08:37:05;;;;;;;23.92;20.33;;;11.80;99.20;;;;;;5009788;28;20044;-73
2023/10/24 08:39:30;;;;;;;22.95;20.15;;;11.80;99.20;;;;;;5010640;28;20033;-73
2023/10/24 08:41:57;;;;;;;21.48;19.17;;;11.80;99.30;;;;;;5013382;28;20057;-72
2023/10/24 08:44:24;;;;;;;21.02;18.63;;;11.80;99.20;;;;;;5013096;28;20026;-72
2023/10/24 08:46:50;;;;;;;21.35;19.08;;;11.70;99.30;;;;;;5010853;28;20584;-73
2023/10/24 08:49:19;;;;;;;23.80;21.10;;;11.80;99.30;;;;;;5013316;28;20048;-74
2023/10/24 08:51:45;;;;;;;21.00;17.83;;;11.80;99.30;;;;;;5014674;28;20050;-74
2023/10/24 08:54:12;;;;;;;20.45;15.82;;;11.80;99.30;;;;;;5014457;28;20108;-75
2023/10/24 08:56:39;;;;;;;20.38;15.82;;;11.80;99.30;;;;;;5010428;28;20069;-72
2023/10/24 08:59:08;;;;;;;17.13;13.30;;;11.80;99.30;;;;;;5013858;28;20029;-74
2023/10/24 09:01:36;;;;;;;16.55;13.57;;;11.80;99.30;;;;;;5011763;28;20113;-75
2023/10/24 09:04:03;;;;;;;17.50;13.63;;;11.70;99.30;;;;;;5014009;28;20052;-73
2023/10/24 09:06:33;;;;;;;17.05;14.18;;;11.70;99.30;;;;;;5011297;28;20072;-72
2023/10/24 09:08:59;;;;;;;18.95;13.73;;;11.70;99.30;;;;;;5011369;28;20743;-71
2023/10/24 09:11:25;;;;;;;14.57;11.43;;;11.80;99.30;;;;;;5011993;28;20199;-73
2023/10/24 09:13:52;;;;;;;14.48;10.85;;;11.70;99.30;;;;;;5015178;28;20743;-72
2023/10/24 09:16:18;;;;;;;12.80;10.77;;;11.70;99.20;;;;;;5013587;28;20039;-72
2023/10/24 09:18:43;;;;;;;14.35;11.20;;;11.70;99.20;;;;;;5014378;28;20037;-72
2023/10/24 09:21:09;;;;;;;14.35;10.57;;;11.80;99.20;;;;;;5006363;28;20073;-70
2023/10/24 09:23:36;;;;;;;14.75;11.02;;;11.80;99.20;;;;;;5010852;28;20472;-71
2023/10/24 09:26:06;;;;;;;13.57;9.98;;;11.90;99.20;;;;;;5013067;28;21507;-73
2023/10/24 09:28:35;;;;;;;11.18;9.50;;;11.90;99.10;;;;;;5008981;28;20367;-73
2023/10/24 09:31:01;;;;;;;13.30;10.27;;;11.90;99.00;;;;;;5007112;28;21082;-73
2023/10/24 09:33:29;;;;;;;14.57;9.65;;;11.90;98.90;;;;;;5009561;28;20075;-74
2023/10/24 09:35:56;;;;;;;13.23;9.25;;;12.00;98.90;;;;;;5008952;28;20040;-72
2023/10/24 09:38:24;;;;;;;13.55;9.70;;;12.00;98.90;;;;;;5010193;28;20045;-72
2023/10/24 09:40:54;;;;;;;14.10;10.82;;;12.00;98.90;;;;;;5007144;28;20141;-73
2023/10/24 09:43:24;;;;;;;14.23;11.63;;;12.10;98.80;;;;;;5007972;28;20064;-72
2023/10/24 09:45:54;;;;;;;15.85;13.27;;;12.10;98.80;;;;;;5009909;28;20124;-73
2023/10/24 09:48:22;;;;;;;15.73;12.10;;;12.10;98.80;;;;;;5026275;28;20061;-71
2023/10/24 09:50:49;;;;;;;17.90;13.07;;;12.10;98.70;;;;;;5009363;28;20067;-73
2023/10/24 09:53:18;;;;;;;19.42;15.35;;;12.10;98.70;;;;;;5006041;28;20030;-72
2023/10/24 09:55:48;;;;;;;21.30;17.02;;;12.10;98.70;;;;;;5007089;28;20049;-73
2023/10/24 09:58:17;;;;;;;23.33;18.88;;;12.20;98.70;;;;;;5006972;28;20042;-73
2023/10/24 10:00:43;;;;;;;25.13;21.83;;;12.20;98.70;;;;;;5007557;28;20036;-73
2023/10/24 10:03:09;;;;;;;19.38;15.90;;;12.20;98.70;;;;;;5009269;28;20029;-73
2023/10/24 10:05:38;;;;;;;19.33;16.38;;;12.30;98.70;;;;;;5008265;28;20037;-74
2023/10/24 10:08:06;;;;;;;19.40;17.13;;;12.30;98.70;;;;;;5009218;28;20049;-73
2023/10/24 10:10:34;;;;;;;21.17;18.77;;;12.40;98.60;;;;;;5009432;28;20045;-72
2023/10/24 10:13:03;;;;;;;20.45;16.52;;;12.40;98.60;;;;;;5006480;28;20107;-72
2023/10/24 10:15:50;;;;;;;17.73;14.90;;;12.40;98.70;;;;;;5005969;28;20030;-73
2023/10/24 10:18:42;;;;;;;18.10;15.68;;;12.40;98.70;;;;;;5007508;28;20060;-71
2023/10/24 10:21:32;;;;;;;19.67;16.38;;;12.50;98.70;;;;;;5010865;28;20837;-73
2023/10/24 10:24:24;;;;;;;19.30;16.88;;;12.50;98.70;;;;;;5008531;28;20043;-73
2023/10/24 10:27:16;;;;;;;20.08;17.40;;;12.50;98.70;;;;;;5008538;28;20050;-73
2023/10/24 10:30:03;;;;;;;20.05;17.45;;;12.60;98.80;;;;;;5009842;28;20037;-72
2023/10/24 10:32:49;;;;;;;17.83;15.65;;;12.60;98.80;;;;;;5006507;28;20044;-73
2023/10/24 10:35:15;;;;;;;19.55;16.85;;;12.70;98.70;;;;;;5004741;28;22442;-73
2023/10/24 10:37:40;;;;;;;17.40;15.60;;;12.90;98.70;;;;;;4998918;28;20135;-73
2023/10/24 10:40:15;;;;;;;16.98;15.18;;;12.80;98.70;;;;;;5004609;28;20037;-74
2023/10/24 10:42:47;;;;;;;;;;;13.00;98.60;;;;;;5003464;28;20474;-72
2023/10/24 10:45:23;;;;;;;19.77;17.65;;;13.10;98.60;;;;;;5002695;28;20361;-73
2023/10/24 10:47:49;;;;;;;20.52;18.35;;;13.20;98.60;;;;;;5003572;28;20037;-72
2023/10/24 10:50:24;;;;;;;19.98;17.38;;;13.40;98.20;;;;;;5003163;28;20040;-73
2023/10/24 10:52:56;;;;;;;16.08;13.32;;;13.60;98.10;;;;;;5001185;28;20044;-74
2023/10/24 10:55:52;;;;;;;16.70;13.05;;;13.80;98.10;;;;;;5000700;28;20037;-71
2023/10/24 10:58:47;;;;;;;15.68;12.20;;;14.10;97.90;;;;;;5002904;28;20042;-72
2023/10/24 11:01:41;;;;;;;15.32;10.20;;;14.50;97.60;;;;;;5005380;28;20041;-73
2023/10/24 11:04:14;;;;;;;11.68;9.60;;;14.70;96.50;;;;;;5002979;28;21548;-73
2023/10/24 11:06:57;;;;;;;11.20;8.57;;;15.00;95.80;;;;;;5002973;28;20477;-73
2023/10/24 11:09:30;;;;;;;13.20;9.55;;;15.30;94.80;;;;;;5003515;28;20088;-73
2023/10/24 11:12:20;;;;;;;16.75;9.57;;;15.40;93.80;;;;;;5002894;28;20033;-74
2023/10/24 11:15:13;;;;;;;11.75;8.60;;;15.50;93.00;;;;;;5003766;28;20033;-74
2023/10/24 11:17:40;;;;;;;10.70;7.35;;;15.50;92.20;;;;;;5003679;28;20045;-73
2023/10/24 11:20:10;;;;;;;9.40;7.03;;;15.60;92.40;;;;;;5004046;28;20071;-72
2023/10/24 11:22:36;;;;;;;10.38;6.07;;;15.60;91.70;;;;;;5003262;28;20822;-72
2023/10/24 11:25:15;;;;;;;9.48;5.97;;;15.70;91.10;;;;;;5003074;28;20546;-73
2023/10/24 11:27:41;;;;;;;12.00;7.75;;;15.80;91.00;;;;;;5001698;28;20128;-71
2023/10/24 11:30:08;;;;;;;11.68;6.20;;;15.80;90.80;;;;;;5005948;28;20098;-74
2023/10/24 11:32:34;;;;;;;9.85;4.82;;;16.00;90.50;;;;;;5000494;28;20044;-73
2023/10/24 11:35:02;;;;;;;11.02;6.97;;;16.10;89.40;;;;;;5011154;28;20042;-73
2023/10/24 11:37:28;;;;;;;10.40;4.45;;;16.00;89.40;;;;;;5014640;28;20037;-73
2023/10/24 11:39:53;;;;;;;8.63;4.22;;;15.90;88.50;;;;;;5016377;28;20037;-73
2023/10/24 11:42:19;;;;;;;9.73;5.00;;;15.90;88.00;;;;;;5009107;28;20106;-73
2023/10/24 11:44:45;;;;;;;6.95;3.20;;;16.00;88.00;;;;;;5010165;28;20049;-73
2023/10/24 11:47:16;;;;;;;9.43;4.53;;;16.10;88.60;;;;;;5012975;28;20045;-73
2023/10/24 11:49:45;;;;;;;10.13;4.10;;;16.20;88.50;;;;;;5010787;28;20057;-73
2023/10/24 11:52:11;;;;;;;7.50;3.00;;;16.20;86.60;;;;;;5014014;28;20029;-73
2023/10/24 11:54:39;;;;;;;6.22;2.58;;;16.00;86.70;;;;;;5009772;28;20079;-73
2023/10/24 11:57:05;;;;;;;7.07;2.55;;;15.90;86.90;;;;;;5014350;28;20034;-73
2023/10/24 11:59:34;;;;;;;7.65;2.50;;;15.70;86.80;;;;;;5013439;28;20040;-73
2023/10/24 12:02:04;;;;;;;7.25;2.70;;;15.60;87.20;;;;;;5012065;28;21362;-73
2023/10/24 12:04:32;;;;;;;5.72;2.35;;;15.50;87.80;;;;;;5016408;28;20028;-73
2023/10/24 12:07:07;;;;;;;7.90;3.22;;;15.30;88.10;;;;;;5019984;28;20559;-74
2023/10/24 12:09:34;;;;;;;6.47;2.85;;;15.50;88.80;;;;;;5014824;28;20478;-74
2023/10/24 12:12:04;;;;;;;9.30;2.63;;;15.50;88.20;;;;;;5018548;28;20347;-73
2023/10/24 12:14:30;;;;;;;9.02;2.38;;;15.50;87.80;;;;;;5019181;28;21805;-73
2023/10/24 12:16:59;;;;;;;5.10;2.13;;;15.50;87.80;;;;;;5014005;28;20163;-73
2023/10/24 12:19:25;;;;;;;18.30;3.78;;;15.50;87.60;;;;;;5019978;28;20048;-73
2023/10/24 12:21:51;;;;;;;7.53;2.60;;;15.60;88.30;;;;;;5017190;28;20041;-73
2023/10/24 12:24:17;;;;;;;10.15;2.63;;;15.70;86.30;;;;;;5017519;28;20532;-73
2023/10/24 12:26:43;;;;;;;9.15;2.92;;;15.70;85.40;;;;;;5018593;28;20049;-73
2023/10/24 12:29:11;;;;;;;6.40;1.92;;;15.80;86.00;;;;;;5017276;28;20080;-73